Time;durP1;ratioP1;P1;durP2;ratioP2;P2;SDS_P1;SDS_P2;PMS_P1;PMS_P2;Temp;Humidity;BMP_temperature;BMP_pressure;BME280_temperature;BME280_humidity;BME280_pressure;Samples;Min_cycle;Max_cycle;Signal;HPM_P1;HPM_P2
2024/02/12 00:01:21;;;;;;;65.25;28.80;;;8.50;99.90;;;;;;5059671;28;20218;-51
2024/02/12 00:03:46;;;;;;;67.07;30.55;;;8.50;99.90;;;;;;5059808;28;20269;-50
2024/02/12 00:06:14;;;;;;;71.93;30.33;;;8.50;99.90;;;;;;5059508;28;20220;-50
2024/02/12 00:08:42;;;;;;;66.55;28.25;;;8.50;99.90;;;;;;5059982;28;20190;-51
2024/02/12 00:11:08;;;;;;;54.75;28.15;;;8.60;99.90;;;;;;5063631;28;20179;-54
2024/02/12 00:13:34;;;;;;;64.93;29.02;;;8.50;99.90;;;;;;5063616;28;20205;-49
2024/02/12 00:16:00;;;;;;;63.92;28.52;;;8.50;99.90;;;;;;5079046;28;20198;-49
2024/02/12 00:18:26;;;;;;;62.05;28.23;;;8.50;99.90;;;;;;5063365;28;20943;-49
2024/02/12 00:20:52;;;;;;;63.67;27.75;;;8.50;99.90;;;;;;5063294;28;20203;-50
2024/02/12 00:23:18;;;;;;;68.38;28.80;;;8.50;99.90;;;;;;5062540;28;20560;-53
2024/02/12 00:25:45;;;;;;;61.33;28.80;;;8.40;99.90;;;;;;5061761;28;20210;-54
2024/02/12 00:28:10;;;;;;;65.90;29.50;;;8.40;99.90;;;;;;5062983;28;20217;-51
2024/02/12 00:30:39;;;;;;;58.20;28.48;;;8.40;99.90;;;;;;5063506;28;20207;-53
2024/02/12 00:33:06;;;;;;;67.95;28.17;;;8.40;99.90;;;;;;5063028;28;20187;-49
2024/02/12 00:35:38;;;;;;;56.67;27.45;;;8.40;99.90;;;;;;5062941;28;20190;-51
2024/02/12 00:38:04;;;;;;;60.58;27.52;;;8.40;99.90;;;;;;5063445;28;20305;-49
2024/02/12 00:40:30;;;;;;;59.22;28.23;;;8.40;99.90;;;;;;5063257;28;21175;-52
2024/02/12 00:42:57;;;;;;;61.88;27.58;;;8.40;99.90;;;;;;5061780;28;20352;-50
2024/02/12 00:45:23;;;;;;;62.80;28.13;;;8.40;99.90;;;;;;5063162;28;20598;-52
2024/02/12 00:47:50;;;;;;;61.55;27.92;;;8.40;99.90;;;;;;5079074;28;20179;-51
2024/02/12 00:50:18;;;;;;;61.40;28.40;;;8.50;99.90;;;;;;5062787;28;20189;-47
2024/02/12 00:52:43;;;;;;;59.08;28.25;;;8.50;99.90;;;;;;5094076;28;20718;-48
2024/02/12 00:55:15;;;;;;;59.45;28.08;;;8.50;99.90;;;;;;5062661;28;20273;-49
2024/02/12 00:57:43;;;;;;;64.32;26.77;;;8.50;99.90;;;;;;5062215;28;20195;-50
2024/02/12 01:00:13;;;;;;;66.40;27.88;;;8.50;99.90;;;;;;5062291;28;20222;-49
2024/02/12 01:02:43;;;;;;;59.03;28.55;;;8.50;99.90;;;;;;5061409;28;20252;-54
2024/02/12 01:05:10;;;;;;;57.33;28.20;;;8.50;99.90;;;;;;5062371;28;20218;-52
2024/02/12 01:07:40;;;;;;;54.15;26.73;;;8.50;99.90;;;;;;5060147;28;20183;-56
2024/02/12 01:10:06;;;;;;;60.90;27.65;;;8.60;99.90;;;;;;5061940;28;20191;-53
2024/02/12 01:12:32;;;;;;;56.28;27.13;;;8.50;99.90;;;;;;5062887;28;20256;-54
2024/02/12 01:15:01;;;;;;;55.38;26.92;;;8.50;99.90;;;;;;5093282;28;20237;-52
2024/02/12 01:17:29;;;;;;;60.92;27.30;;;8.50;99.90;;;;;;5062515;28;20198;-49
2024/02/12 01:19:55;;;;;;;58.10;26.30;;;8.50;99.90;;;;;;5062180;28;20174;-50
2024/02/12 01:22:21;;;;;;;51.92;25.52;;;8.50;99.90;;;;;;5061455;28;20190;-52
2024/02/12 01:24:48;;;;;;;64.82;27.63;;;8.50;99.90;;;;;;5062498;28;20221;-52
2024/02/12 01:27:14;;;;;;;61.67;27.08;;;8.50;99.90;;;;;;5078075;28;20186;-51
2024/02/12 01:29:48;;;;;;;59.83;25.85;;;8.50;99.90;;;;;;5062093;28;20290;-55
2024/02/12 01:32:15;;;;;;;61.15;25.88;;;8.50;99.90;;;;;;5062587;28;20182;-49
2024/02/12 01:34:43;;;;;;;56.65;26.52;;;8.50;99.90;;;;;;5061736;28;20245;-53
2024/02/12 01:37:09;;;;;;;61.58;26.48;;;8.50;99.90;;;;;;5061399;28;20198;-53
2024/02/12 01:39:35;;;;;;;57.00;27.58;;;8.50;99.90;;;;;;5061291;28;20182;-51
2024/02/12 01:42:14;;;;;;;58.83;26.70;;;8.50;99.90;;;;;;5061692;28;20254;-49
2024/02/12 01:45:04;;;;;;;56.58;26.27;;;8.50;99.90;;;;;;5077867;28;20197;-53
2024/02/12 01:47:33;;;;;;;55.88;26.13;;;8.40;99.90;;;;;;5061536;28;20301;-52
2024/02/12 01:50:00;;;;;;;55.47;26.33;;;8.40;99.90;;;;;;5058924;28;20984;-51
2024/02/12 01:52:29;;;;;;;57.45;26.67;;;8.40;99.90;;;;;;5061611;28;20190;-49
2024/02/12 01:55:00;;;;;;;55.80;25.77;;;8.40;99.90;;;;;;5060281;28;20248;-51
2024/02/12 01:57:26;;;;;;;51.90;25.77;;;8.40;99.90;;;;;;5061742;28;20205;-47
2024/02/12 01:59:52;;;;;;;52.67;25.80;;;8.40;99.90;;;;;;5061250;28;20182;-52
2024/02/12 02:02:17;;;;;;;57.33;25.75;;;8.30;99.90;;;;;;5060520;28;20260;-48
2024/02/12 02:04:49;;;;;;;54.35;26.08;;;8.30;99.90;;;;;;5061626;28;20206;-52
2024/02/12 02:07:19;;;;;;;56.15;24.55;;;8.30;99.90;;;;;;5061653;28;20202;-54
2024/02/12 02:09:46;;;;;;;58.92;25.48;;;8.30;99.90;;;;;;5060513;28;20178;-46
2024/02/12 02:12:13;;;;;;;48.78;25.05;;;8.30;99.90;;;;;;5061414;28;20300;-49
2024/02/12 02:14:39;;;;;;;57.53;23.83;;;8.30;99.90;;;;;;5061316;28;20178;-51
2024/02/12 02:17:05;;;;;;;51.58;23.80;;;8.30;99.90;;;;;;5060431;28;20325;-51
2024/02/12 02:19:32;;;;;;;45.72;24.40;;;8.30;99.90;;;;;;5059522;28;20611;-50
2024/02/12 02:21:58;;;;;;;46.00;23.60;;;8.30;99.90;;;;;;5060148;28;20195;-51
2024/02/12 02:24:24;;;;;;;46.30;24.02;;;8.30;99.90;;;;;;5060850;28;20585;-47
2024/02/12 02:26:49;;;;;;;47.25;23.77;;;8.20;99.90;;;;;;5060060;28;20215;-53
2024/02/12 02:29:15;;;;;;;45.15;23.27;;;8.20;99.90;;;;;;5060745;28;20198;-50
2024/02/12 02:31:41;;;;;;;47.40;23.33;;;8.20;99.90;;;;;;5056357;28;20224;-50
2024/02/12 02:34:07;;;;;;;48.25;24.70;;;8.20;99.90;;;;;;5059676;28;20302;-51
2024/02/12 02:36:34;;;;;;;52.30;24.40;;;8.20;99.90;;;;;;5091730;28;20235;-54
2024/02/12 02:39:02;;;;;;;52.80;24.67;;;8.20;99.90;;;;;;5058890;28;20680;-51
2024/02/12 02:41:28;;;;;;;50.42;23.77;;;8.20;99.90;;;;;;5058998;28;20278;-49
2024/02/12 02:43:54;;;;;;;48.20;24.15;;;8.20;99.90;;;;;;5060258;28;21110;-52
2024/02/12 02:46:26;;;;;;;44.50;23.98;;;8.20;99.90;;;;;;5061038;28;20222;-52
2024/02/12 02:48:53;;;;;;;47.75;24.55;;;8.20;99.90;;;;;;5060475;28;21152;-54
2024/02/12 02:51:29;;;;;;;48.00;24.48;;;8.30;99.90;;;;;;5058651;28;20248;-51
2024/02/12 02:53:55;;;;;;;47.38;25.20;;;8.20;99.90;;;;;;5059754;28;20199;-50
2024/02/12 02:56:22;;;;;;;51.05;25.05;;;8.20;99.90;;;;;;5059648;28;20655;-53
2024/02/12 02:58:51;;;;;;;48.60;25.23;;;8.20;99.90;;;;;;5059275;28;20198;-55
2024/02/12 03:01:20;;;;;;;50.13;25.70;;;8.30;99.90;;;;;;5059682;28;20204;-47
2024/02/12 03:03:50;;;;;;;54.80;25.27;;;8.30;99.90;;;;;;5060091;28;20300;-51
2024/02/12 03:06:19;;;;;;;46.88;24.83;;;8.30;99.90;;;;;;5059806;28;20206;-51
2024/02/12 03:08:48;;;;;;;56.70;25.75;;;8.30;99.90;;;;;;5055361;28;20190;-48
2024/02/12 03:11:23;;;;;;;48.38;25.70;;;8.20;99.90;;;;;;5060523;28;20729;-50
2024/02/12 03:13:55;;;;;;;51.17;24.52;;;8.30;99.90;;;;;;5060398;28;20244;-49
2024/02/12 03:16:24;;;;;;;51.08;25.77;;;8.30;99.90;;;;;;5058939;28;20187;-51
2024/02/12 03:18:52;;;;;;;50.33;25.17;;;8.30;99.90;;;;;;5058227;28;20659;-51
2024/02/12 03:21:22;;;;;;;52.85;26.00;;;8.20;99.90;;;;;;5060415;28;20726;-55
2024/02/12 03:23:49;;;;;;;47.47;25.55;;;8.20;99.90;;;;;;5059848;28;20221;-50
2024/02/12 03:26:17;;;;;;;53.25;26.40;;;8.20;99.90;;;;;;5059742;28;20202;-52
2024/02/12 03:28:44;;;;;;;53.28;26.48;;;8.20;99.90;;;;;;5059871;28;20182;-47
2024/02/12 03:31:10;;;;;;;49.50;25.95;;;8.30;99.90;;;;;;5059962;28;20723;-52
2024/02/12 03:33:42;;;;;;;54.05;27.05;;;8.30;99.90;;;;;;5059791;28;20290;-53
2024/02/12 03:36:08;;;;;;;49.65;25.60;;;8.20;99.90;;;;;;5059037;28;20205;-53
2024/02/12 03:38:33;;;;;;;51.60;26.90;;;8.20;99.90;;;;;;5058615;28;20346;-52
2024/02/12 03:40:59;;;;;;;61.15;26.90;;;8.20;99.90;;;;;;5059682;28;20236;-50
2024/02/12 03:43:25;;;;;;;48.08;25.70;;;8.20;99.90;;;;;;5059937;28;20292;-48
2024/02/12 03:45:55;;;;;;;50.53;25.83;;;8.30;99.90;;;;;;5062730;28;20260;-53
2024/02/12 04:02:02;;;;;;;49.90;25.05;;;8.30;99.90;;;;;;5063840;28;21088;-53
2024/02/12 04:04:30;;;;;;;48.25;25.30;;;8.30;99.90;;;;;;5063626;28;20606;-51
2024/02/12 04:06:57;;;;;;;48.20;25.92;;;8.30;99.90;;;;;;5062892;28;20238;-48
2024/02/12 04:09:23;;;;;;;46.92;25.05;;;8.30;99.90;;;;;;5063962;28;20194;-53
2024/02/12 04:11:49;;;;;;;45.38;24.80;;;8.30;99.90;;;;;;5063767;28;20249;-48
2024/02/12 04:14:15;;;;;;;43.47;25.42;;;8.30;99.90;;;;;;5063723;28;20182;-48
2024/02/12 04:16:42;;;;;;;45.22;23.35;;;8.30;99.90;;;;;;5062440;28;20261;-50
2024/02/12 04:19:10;;;;;;;42.40;24.83;;;8.30;99.90;;;;;;5063355;28;20273;-50
2024/02/12 04:21:37;;;;;;;45.92;25.17;;;8.30;99.90;;;;;;5062909;28;20197;-50
2024/02/12 04:24:04;;;;;;;44.85;24.30;;;8.30;99.90;;;;;;5063959;28;20634;-46
2024/02/12 04:26:32;;;;;;;47.70;24.75;;;8.30;99.90;;;;;;5063437;28;20214;-51
2024/02/12 04:28:58;;;;;;;49.55;25.33;;;8.30;99.90;;;;;;5063432;28;20194;-49
2024/02/12 04:31:26;;;;;;;44.00;24.10;;;8.30;99.90;;;;;;5062908;28;20193;-51
2024/02/12 04:33:53;;;;;;;45.90;24.73;;;8.30;99.90;;;;;;5063764;28;20202;-49
2024/02/12 04:36:19;;;;;;;43.47;23.90;;;8.40;99.90;;;;;;5063126;28;20187;-47
2024/02/12 04:38:45;;;;;;;46.58;25.08;;;8.30;99.90;;;;;;5062669;28;20297;-50
2024/02/12 04:41:13;;;;;;;47.08;25.23;;;8.30;99.90;;;;;;5063066;28;20191;-52
2024/02/12 04:43:40;;;;;;;47.60;24.75;;;8.30;99.90;;;;;;5062661;28;20651;-55
2024/02/12 04:46:05;;;;;;;48.53;24.33;;;8.30;99.90;;;;;;5062616;28;20225;-48
2024/02/12 04:48:31;;;;;;;46.05;24.30;;;8.30;99.90;;;;;;5063742;28;20191;-52
2024/02/12 04:50:57;;;;;;;42.33;23.92;;;8.40;99.90;;;;;;5062496;28;20186;-51
2024/02/12 04:53:23;;;;;;;46.72;25.30;;;8.40;99.90;;;;;;5062608;28;20563;-51
2024/02/12 04:55:49;;;;;;;46.97;23.90;;;8.40;99.90;;;;;;5061588;28;20187;-54
2024/02/12 04:58:14;;;;;;;51.95;24.65;;;8.40;99.90;;;;;;5062643;28;21109;-54
2024/02/12 05:00:40;;;;;;;52.65;24.02;;;8.40;99.90;;;;;;5061199;28;20600;-48
2024/02/12 05:03:07;;;;;;;49.85;23.80;;;8.40;99.90;;;;;;5062962;28;20196;-49
2024/02/12 05:05:34;;;;;;;49.58;25.40;;;8.30;99.90;;;;;;5062492;28;20779;-54
2024/02/12 05:08:03;;;;;;;45.15;24.95;;;8.30;99.90;;;;;;5062496;28;20189;-52
2024/02/12 05:10:30;;;;;;;47.85;24.55;;;8.40;99.90;;;;;;5062564;28;20200;-49
2024/02/12 05:12:56;;;;;;;48.38;24.70;;;8.40;99.90;;;;;;5043924;28;20228;-53
2024/02/12 05:15:23;;;;;;;44.88;24.83;;;8.40;99.90;;;;;;5077487;28;20198;-51
2024/02/12 05:17:55;;;;;;;47.78;25.60;;;8.40;99.90;;;;;;5060707;28;20194;-53
2024/02/12 05:23:09;;;;;;;48.92;23.95;;;8.30;99.90;;;;;;5062204;28;20201;-49
2024/02/12 05:25:35;;;;;;;47.05;24.42;;;8.40;99.90;;;;;;5061228;28;20218;-52
2024/02/12 05:28:02;;;;;;;52.28;25.02;;;8.30;99.90;;;;;;5061571;28;20224;-44
2024/02/12 05:30:27;;;;;;;49.00;24.65;;;8.40;99.90;;;;;;5062503;28;20194;-51
2024/02/12 05:32:53;;;;;;;47.03;25.20;;;8.40;99.90;;;;;;5061677;28;20197;-47
2024/02/12 05:35:19;;;;;;;51.83;25.50;;;8.30;99.90;;;;;;5062240;28;20195;-52
2024/02/12 05:37:45;;;;;;;48.17;24.88;;;8.30;99.90;;;;;;5061873;28;20213;-51
2024/02/12 05:40:11;;;;;;;49.10;25.73;;;8.20;99.90;;;;;;5061387;28;20210;-52
2024/02/12 05:42:37;;;;;;;50.45;26.17;;;8.20;99.90;;;;;;5061882;28;21097;-50
2024/02/12 05:45:05;;;;;;;54.13;25.73;;;8.10;99.90;;;;;;5062394;28;20276;-46
2024/02/12 05:47:30;;;;;;;51.10;26.23;;;8.10;99.90;;;;;;5061296;28;20215;-55
2024/02/12 05:49:56;;;;;;;55.30;27.25;;;8.00;99.90;;;;;;5061337;28;20207;-49
2024/02/12 05:52:22;;;;;;;52.10;26.38;;;8.00;99.90;;;;;;5043329;28;20316;-48
2024/02/12 05:54:47;;;;;;;55.05;25.65;;;8.00;99.90;;;;;;5061678;28;20266;-51
2024/02/12 05:57:13;;;;;;;53.30;25.42;;;7.90;99.90;;;;;;5060206;28;20194;-50
2024/02/12 05:59:39;;;;;;;54.40;27.10;;;7.90;99.90;;;;;;5060188;28;20201;-53
2024/02/12 06:02:05;;;;;;;52.90;26.25;;;7.90;99.90;;;;;;5076400;28;20183;-52
2024/02/12 06:04:33;;;;;;;59.55;28.00;;;7.90;99.90;;;;;;5060675;28;20198;-49
2024/02/12 06:06:59;;;;;;;54.83;27.73;;;7.80;99.90;;;;;;5060789;28;20245;-52
2024/02/12 06:09:26;;;;;;;63.22;25.83;;;7.80;99.90;;;;;;5059332;28;20619;-50
2024/02/12 06:11:53;;;;;;;61.58;27.65;;;7.80;99.90;;;;;;5060971;28;20178;-50
2024/02/12 06:14:20;;;;;;;61.25;27.73;;;7.80;99.90;;;;;;5061737;28;20301;-51
2024/02/12 06:16:46;;;;;;;67.00;27.77;;;7.80;99.90;;;;;;5061315;28;20198;-50
2024/02/12 06:19:12;;;;;;;57.53;27.15;;;7.90;99.90;;;;;;5060135;28;20195;-51
2024/02/12 06:21:38;;;;;;;57.33;27.55;;;7.90;99.90;;;;;;5076668;28;20588;-47
2024/02/12 06:24:05;;;;;;;56.13;27.88;;;7.80;99.90;;;;;;5060140;28;20194;-50
2024/02/12 06:26:33;;;;;;;61.22;27.95;;;7.90;99.90;;;;;;5060745;28;20683;-51
2024/02/12 06:28:59;;;;;;;56.78;27.67;;;7.90;99.90;;;;;;5059500;28;20198;-51
2024/02/12 06:31:25;;;;;;;58.05;27.15;;;7.90;99.90;;;;;;5058618;28;20194;-51
2024/02/12 06:33:51;;;;;;;54.55;27.15;;;7.90;99.90;;;;;;5057992;28;20219;-48
2024/02/12 06:36:17;;;;;;;66.93;28.65;;;7.90;99.90;;;;;;5040959;28;20554;-53
2024/02/12 06:38:44;;;;;;;57.50;28.35;;;7.90;99.90;;;;;;5076199;28;20316;-48
2024/02/12 06:41:09;;;;;;;55.45;28.02;;;7.90;99.90;;;;;;5060391;28;20575;-48
2024/02/12 06:43:35;;;;;;;57.75;28.27;;;7.90;99.90;;;;;;5060164;28;20238;-54
2024/02/12 06:46:01;;;;;;;55.75;27.52;;;8.00;99.90;;;;;;5042081;28;20264;-49
2024/02/12 06:48:27;;;;;;;61.60;27.23;;;8.00;99.90;;;;;;5058337;28;20264;-55
2024/02/12 06:50:53;;;;;;;61.15;28.67;;;8.00;99.90;;;;;;5042534;28;20728;-50
2024/02/12 06:53:19;;;;;;;54.38;27.45;;;8.00;99.90;;;;;;5058902;28;20201;-53
2024/02/12 06:55:46;;;;;;;55.80;27.98;;;8.00;99.90;;;;;;5058391;28;20281;-47
2024/02/12 06:58:12;;;;;;;59.67;28.73;;;8.00;99.90;;;;;;5075629;28;20261;-51
2024/02/12 07:00:37;;;;;;;58.40;26.85;;;8.00;99.90;;;;;;5041995;28;20732;-51
2024/02/12 07:03:05;;;;;;;63.47;27.60;;;8.00;99.90;;;;;;5059577;28;20191;-51
2024/02/12 07:05:31;;;;;;;56.47;27.38;;;8.00;99.90;;;;;;5060480;28;20434;-46
2024/02/12 07:07:58;;;;;;;64.15;28.63;;;8.00;99.90;;;;;;5059720;28;20197;-49
2024/02/12 07:10:24;;;;;;;58.17;27.70;;;8.00;99.90;;;;;;5057195;28;20638;-53
2024/02/12 07:12:50;;;;;;;58.40;28.60;;;8.00;99.90;;;;;;5058122;28;20214;-51
2024/02/12 07:15:16;;;;;;;61.33;29.48;;;8.00;99.90;;;;;;5057889;28;20213;-50
2024/02/12 07:17:43;;;;;;;57.30;28.55;;;8.00;99.90;;;;;;5059726;28;20937;-47
2024/02/12 07:20:09;;;;;;;53.03;27.35;;;8.10;99.90;;;;;;5041251;28;20677;-48
2024/02/12 07:22:38;;;;;;;52.67;28.60;;;8.10;99.90;;;;;;5059841;28;20191;-49
2024/02/12 07:25:05;;;;;;;53.42;28.50;;;8.10;99.90;;;;;;5059394;28;20301;-51
2024/02/12 07:27:31;;;;;;;54.42;27.63;;;8.10;99.90;;;;;;5058780;28;20223;-52
2024/02/12 07:29:57;;;;;;;57.58;28.08;;;8.10;99.90;;;;;;5059344;28;20190;-49
2024/02/12 07:32:22;;;;;;;50.33;26.75;;;8.10;99.90;;;;;;5058418;28;20194;-52
2024/02/12 07:34:50;;;;;;;55.22;27.58;;;8.10;99.90;;;;;;5056555;28;20270;-55
2024/02/12 07:37:16;;;;;;;59.65;27.73;;;8.20;99.90;;;;;;5041630;28;20189;-49
2024/02/12 07:39:42;;;;;;;60.00;27.80;;;8.10;99.90;;;;;;5058938;28;20195;-52
2024/02/12 07:42:09;;;;;;;55.25;26.88;;;8.10;99.90;;;;;;5059683;28;20222;-52
2024/02/12 07:44:36;;;;;;;54.92;26.38;;;8.10;99.90;;;;;;5060254;28;20183;-51
2024/02/12 07:47:05;;;;;;;56.38;26.98;;;8.20;99.90;;;;;;5060217;28;20233;-51
2024/02/12 07:49:32;;;;;;;56.38;28.13;;;8.10;99.90;;;;;;5059310;28;20273;-51
2024/02/12 07:52:01;;;;;;;51.20;26.48;;;8.10;99.90;;;;;;5059662;28;20187;-55
2024/02/12 07:54:33;;;;;;;49.60;27.48;;;8.20;99.90;;;;;;5059828;28;20198;-50
2024/02/12 07:56:59;;;;;;;52.47;26.23;;;8.20;99.90;;;;;;5057984;28;20588;-52
2024/02/12 07:59:25;;;;;;;60.50;26.90;;;8.30;99.90;;;;;;5059865;28;20198;-53
2024/02/12 08:01:51;;;;;;;56.22;26.33;;;8.20;99.90;;;;;;5059729;28;20201;-51
2024/02/12 08:04:19;;;;;;;53.38;27.35;;;8.20;99.90;;;;;;5058465;28;21105;-51
2024/02/12 08:06:44;;;;;;;58.08;26.88;;;8.30;99.90;;;;;;5059606;28;20620;-52
2024/02/12 08:09:10;;;;;;;55.92;26.80;;;8.30;99.90;;;;;;5059041;28;20267;-50
2024/02/12 08:11:39;;;;;;;49.15;26.60;;;8.20;99.90;;;;;;5059248;28;20206;-52
2024/02/12 08:14:09;;;;;;;54.90;26.80;;;8.30;99.90;;;;;;5058094;28;20231;-50
2024/02/12 08:16:35;;;;;;;54.53;26.40;;;8.30;99.90;;;;;;5059179;28;20212;-54
2024/02/12 08:19:01;;;;;;;49.72;25.85;;;8.30;99.90;;;;;;5059592;28;20296;-50
2024/02/12 08:21:27;;;;;;;55.47;25.38;;;8.20;99.90;;;;;;5058506;28;20194;-51
2024/02/12 08:23:52;;;;;;;58.58;26.50;;;8.20;99.90;;;;;;5058811;28;20550;-54
2024/02/12 08:26:19;;;;;;;53.67;25.70;;;8.20;99.90;;;;;;5058874;28;20250;-52
2024/02/12 08:28:45;;;;;;;58.13;25.02;;;8.20;99.90;;;;;;5057926;28;20647;-50
2024/02/12 08:31:11;;;;;;;51.40;25.65;;;8.20;99.90;;;;;;5060996;28;20195;-53
2024/02/12 08:33:37;;;;;;;54.28;27.60;;;8.10;99.90;;;;;;5063844;28;20244;-48
2024/02/12 08:36:04;;;;;;;55.92;27.08;;;8.10;99.90;;;;;;5061069;28;20274;-50
2024/02/12 08:38:30;;;;;;;56.40;26.52;;;8.20;99.90;;;;;;5059470;28;20671;-46
2024/02/12 08:40:56;;;;;;;44.92;26.38;;;8.20;99.90;;;;;;5062933;28;20277;-50
2024/02/12 08:43:22;;;;;;;57.88;26.63;;;8.10;99.90;;;;;;5060399;28;20230;-47
2024/02/12 08:45:47;;;;;;;54.63;26.52;;;8.10;99.90;;;;;;5063046;28;20233;-51
2024/02/12 08:48:13;;;;;;;54.28;25.85;;;8.20;99.90;;;;;;5063083;28;20289;-55
2024/02/12 08:50:39;;;;;;;55.72;26.42;;;8.10;99.90;;;;;;5062571;28;20175;-50
2024/02/12 08:53:05;;;;;;;56.88;25.45;;;8.20;99.90;;;;;;5062689;28;20205;-49
2024/02/12 08:55:31;;;;;;;51.50;26.05;;;8.20;99.90;;;;;;5062244;28;20198;-54
2024/02/12 08:57:57;;;;;;;45.58;24.90;;;8.30;99.90;;;;;;5061722;28;21215;-48
2024/02/12 09:00:22;;;;;;;46.72;25.90;;;8.40;99.90;;;;;;5061090;28;20202;-50
2024/02/12 09:02:48;;;;;;;41.25;22.90;;;8.50;99.90;;;;;;5077733;28;20289;-49
2024/02/12 09:05:14;;;;;;;45.45;24.55;;;8.50;99.90;;;;;;5062694;28;20222;-52
2024/02/12 09:07:40;;;;;;;42.00;22.52;;;8.70;99.90;;;;;;5061402;28;20740;-53
2024/02/12 09:10:08;;;;;;;47.05;22.45;;;8.80;99.90;;;;;;5061215;28;20237;-52
2024/02/12 09:12:37;;;;;;;39.75;21.83;;;9.00;99.90;;;;;;5061899;28;20696;-52
2024/02/12 09:15:16;;;;;;;36.92;20.50;;;9.10;99.90;;;;;;5061460;28;20288;-49
2024/02/12 09:17:44;;;;;;;36.47;19.88;;;9.20;99.90;;;;;;5061194;28;20218;-50
2024/02/12 09:20:13;;;;;;;44.30;20.00;;;9.30;99.90;;;;;;5060765;28;20205;-54
2024/02/12 09:22:39;;;;;;;39.65;20.35;;;9.50;99.90;;;;;;5060272;28;20191;-52
2024/02/12 09:25:08;;;;;;;32.63;18.05;;;9.60;99.90;;;;;;5060586;28;20559;-50
2024/02/12 09:27:34;;;;;;;40.13;19.10;;;9.60;99.90;;;;;;5060357;28;20198;-52
2024/02/12 09:30:00;;;;;;;40.38;17.73;;;9.70;99.90;;;;;;5061135;28;20183;-54
2024/02/12 09:32:26;;;;;;;32.45;16.90;;;9.70;99.90;;;;;;5060242;28;20198;-53
2024/02/12 09:34:52;;;;;;;29.25;14.82;;;9.70;99.90;;;;;;5056171;28;20190;-53
2024/02/12 09:37:18;;;;;;;32.65;15.43;;;9.80;99.90;;;;;;5062223;28;20195;-53
2024/02/12 09:39:45;;;;;;;34.15;14.00;;;9.80;99.90;;;;;;5060011;28;20202;-51
2024/02/12 09:42:16;;;;;;;27.23;15.15;;;9.90;99.90;;;;;;5059656;28;20218;-49
2024/02/12 09:44:46;;;;;;;29.08;14.00;;;9.90;99.90;;;;;;5061764;28;20178;-48
2024/02/12 09:47:16;;;;;;;29.73;13.93;;;9.90;99.90;;;;;;5061096;28;20260;-47
2024/02/12 09:49:43;;;;;;;31.02;13.63;;;9.90;99.90;;;;;;5061762;28;20189;-53
2024/02/12 09:52:11;;;;;;;22.95;13.52;;;9.90;99.90;;;;;;5059601;28;20186;-53
2024/02/12 09:54:38;;;;;;;25.52;13.13;;;9.90;99.90;;;;;;5061018;28;20243;-53
2024/02/12 09:57:04;;;;;;;28.60;12.32;;;9.90;99.90;;;;;;5061232;28;20193;-49
2024/02/12 09:59:31;;;;;;;26.60;11.80;;;9.90;99.90;;;;;;5060256;28;20187;-50
2024/02/12 10:01:57;;;;;;;24.80;12.13;;;9.90;99.90;;;;;;5060061;28;20183;-53
2024/02/12 10:04:25;;;;;;;25.40;12.38;;;10.00;99.90;;;;;;5058028;28;20247;-52
2024/02/12 10:06:56;;;;;;;32.65;12.82;;;10.00;99.90;;;;;;5061064;28;20213;-51
2024/02/12 10:09:23;;;;;;;29.90;12.25;;;10.10;99.90;;;;;;5060758;28;20260;-52
2024/02/12 10:11:49;;;;;;;26.30;11.65;;;10.20;99.90;;;;;;5061612;28;20236;-53
2024/02/12 10:14:27;;;;;;;25.48;11.75;;;10.30;99.90;;;;;;5061422;28;20202;-49
2024/02/12 10:16:53;;;;;;;23.65;10.95;;;10.30;99.90;;;;;;5060584;28;20697;-51
2024/02/12 10:19:19;;;;;;;25.92;11.18;;;10.30;99.90;;;;;;5060960;28;20277;-49
2024/02/12 10:21:44;;;;;;;28.10;11.68;;;10.30;99.90;;;;;;5059150;28;20277;-54
2024/02/12 10:24:11;;;;;;;26.52;11.35;;;10.30;99.90;;;;;;5059532;28;20300;-51
2024/02/12 10:26:36;;;;;;;21.75;10.48;;;10.40;99.90;;;;;;5058557;28;20250;-54
2024/02/12 10:29:03;;;;;;;22.83;10.73;;;10.40;99.90;;;;;;5061468;28;20193;-52
2024/02/12 10:31:29;;;;;;;17.77;9.27;;;10.50;99.90;;;;;;5060780;28;20521;-47
2024/02/12 10:33:57;;;;;;;15.13;9.25;;;10.50;99.90;;;;;;5060229;28;20197;-48
2024/02/12 10:36:26;;;;;;;21.88;9.85;;;10.50;99.90;;;;;;5058629;28;20202;-50
2024/02/12 10:38:55;;;;;;;17.35;9.50;;;10.50;99.90;;;;;;5060470;28;20213;-47
2024/02/12 10:41:32;;;;;;;23.73;9.48;;;10.50;99.90;;;;;;5061430;28;20198;-52
2024/02/12 10:43:58;;;;;;;22.80;9.80;;;10.60;99.90;;;;;;5059801;28;20230;-47
2024/02/12 10:46:31;;;;;;;20.15;8.82;;;10.60;99.90;;;;;;5059994;28;20585;-51
2024/02/12 10:48:58;;;;;;;18.88;8.13;;;10.50;99.90;;;;;;5059947;28;20190;-53
2024/02/12 10:51:24;;;;;;;26.75;8.77;;;10.60;99.90;;;;;;5059857;28;20217;-51
2024/02/12 10:53:53;;;;;;;19.17;9.23;;;10.60;99.90;;;;;;5059282;28;20217;-48
2024/02/12 10:56:20;;;;;;;21.80;8.68;;;10.60;99.90;;;;;;5058917;28;20197;-53
2024/02/12 10:58:46;;;;;;;22.73;9.32;;;10.60;99.90;;;;;;5060001;28;20186;-50
2024/02/12 11:01:15;;;;;;;17.65;8.05;;;10.60;99.90;;;;;;5058432;28;20214;-52
2024/02/12 11:03:46;;;;;;;25.65;8.60;;;10.60;99.90;;;;;;5040757;28;20285;-55
2024/02/12 11:06:16;;;;;;;19.20;7.20;;;10.60;99.90;;;;;;5058973;28;20194;-52
2024/02/12 11:08:42;;;;;;;13.85;7.38;;;10.60;99.90;;;;;;5060045;28;22109;-56
2024/02/12 11:11:18;;;;;;;18.60;8.00;;;10.70;99.90;;;;;;5059515;28;20557;-54
2024/02/12 11:13:49;;;;;;;17.10;7.20;;;10.70;99.90;;;;;;5060153;28;20552;-50
2024/02/12 11:16:16;;;;;;;23.10;8.23;;;10.70;99.90;;;;;;5057276;28;20228;-53
2024/02/12 11:18:42;;;;;;;18.33;7.97;;;10.70;99.90;;;;;;5058133;28;20182;-53
2024/02/12 11:21:10;;;;;;;19.48;7.35;;;10.80;99.90;;;;;;5058231;28;20201;-56
2024/02/12 11:23:40;;;;;;;19.35;6.55;;;10.90;99.90;;;;;;5057723;28;21503;-52
2024/02/12 11:26:06;;;;;;;15.43;6.07;;;10.90;99.90;;;;;;5059536;28;20329;-54
2024/02/12 11:28:32;;;;;;;22.70;7.80;;;10.90;99.90;;;;;;5041495;28;20240;-48
2024/02/12 11:30:58;;;;;;;15.13;6.28;;;10.90;99.90;;;;;;5059164;28;20191;-50
2024/02/12 11:33:25;;;;;;;15.63;6.57;;;10.90;99.90;;;;;;5060112;28;20827;-48
2024/02/12 11:36:11;;;;;;;17.48;6.47;;;10.90;99.90;;;;;;5059337;28;20199;-50
2024/02/12 11:38:48;;;;;;;17.52;6.30;;;11.00;99.90;;;;;;5041775;28;20182;-53
2024/02/12 11:41:17;;;;;;;19.40;6.20;;;11.00;99.90;;;;;;5047467;28;20722;-50
2024/02/12 11:43:45;;;;;;;20.55;6.38;;;10.90;99.90;;;;;;5058150;28;20235;-54
2024/02/12 11:46:15;;;;;;;13.65;5.85;;;10.90;99.90;;;;;;5052813;28;20224;-50
2024/02/12 11:48:44;;;;;;;19.50;6.70;;;10.90;99.90;;;;;;5058995;28;20233;-55
2024/02/12 11:51:09;;;;;;;13.23;6.15;;;10.90;99.90;;;;;;5059520;28;20360;-51
2024/02/12 11:53:39;;;;;;;13.77;6.80;;;10.90;99.90;;;;;;5057064;28;20595;-48
2024/02/12 11:56:06;;;;;;;18.42;7.30;;;10.90;99.90;;;;;;5059398;28;20191;-55
2024/02/12 11:58:32;;;;;;;17.42;6.65;;;10.90;99.90;;;;;;5056157;28;20195;-47
2024/02/12 12:00:58;;;;;;;19.13;6.82;;;11.00;99.90;;;;;;5058327;28;20221;-52
2024/02/12 12:03:25;;;;;;;18.48;6.75;;;11.00;99.90;;;;;;5059842;28;20357;-51
2024/02/12 12:05:54;;;;;;;13.02;6.53;;;11.00;99.90;;;;;;5060761;28;20248;-56
2024/02/12 12:08:27;;;;;;;15.10;6.50;;;11.00;99.90;;;;;;5062450;28;20202;-53
2024/02/12 12:10:52;;;;;;;13.95;6.07;;;11.00;99.90;;;;;;5062900;28;20781;-53
2024/02/12 12:13:21;;;;;;;13.93;5.72;;;11.00;99.90;;;;;;5063085;28;20195;-51
2024/02/12 12:15:47;;;;;;;17.10;6.75;;;11.00;99.90;;;;;;5078266;28;20514;-56
2024/02/12 12:18:14;;;;;;;16.20;6.40;;;11.00;99.90;;;;;;5061118;28;20214;-53
2024/02/12 12:20:40;;;;;;;13.75;5.72;;;11.00;99.90;;;;;;5061523;28;20389;-58
2024/02/12 12:23:09;;;;;;;13.40;5.13;;;11.10;99.90;;;;;;5062998;28;20190;-53
2024/02/12 12:25:37;;;;;;;11.93;6.13;;;11.00;99.90;;;;;;5063097;28;20214;-49
2024/02/12 12:28:05;;;;;;;14.10;5.72;;;11.10;99.90;;;;;;5063163;28;21113;-52
2024/02/12 12:30:32;;;;;;;13.18;5.65;;;11.10;99.90;;;;;;5062366;28;20183;-53
2024/02/12 12:32:58;;;;;;;19.23;6.60;;;11.10;99.90;;;;;;5058356;28;20560;-53
2024/02/12 12:35:24;;;;;;;17.95;5.88;;;11.10;99.90;;;;;;5062341;28;20187;-49
2024/02/12 12:37:52;;;;;;;14.65;5.72;;;11.10;99.90;;;;;;5060972;28;20190;-52
2024/02/12 12:40:25;;;;;;;16.85;5.70;;;11.10;99.90;;;;;;5062876;28;20186;-50
2024/02/12 12:42:53;;;;;;;21.67;6.30;;;11.10;99.90;;;;;;5061168;28;20267;-52
2024/02/12 12:45:21;;;;;;;18.35;6.15;;;11.00;99.90;;;;;;5062754;28;20277;-51
2024/02/12 12:47:48;;;;;;;16.92;5.30;;;11.00;99.90;;;;;;5062679;28;20187;-51
2024/02/12 12:50:14;;;;;;;16.48;5.13;;;11.00;99.90;;;;;;5060371;28;20190;-53
2024/02/12 12:52:41;;;;;;;12.60;5.20;;;11.10;99.90;;;;;;5044230;28;20241;-55